createdAt,value
2018-11-07T00:01:59.099Z,95332.06
2018-11-07T00:04:27.883Z,95322.38
2018-11-07T00:06:56.639Z,95328.28
2018-11-07T00:09:25.603Z,95329.05
2018-11-07T00:11:54.273Z,95321.37
2018-11-07T00:14:23.164Z,95329.08
2018-11-07T00:16:52.023Z,95324.77
2018-11-07T00:19:20.788Z,95321.21
2018-11-07T00:21:49.699Z,95325.69
2018-11-07T00:24:18.830Z,95327.36
2018-11-07T00:26:47.842Z,95329.47
2018-11-07T00:29:16.855Z,95331.95
2018-11-07T00:31:45.697Z,95334.84
2018-11-07T00:34:14.527Z,95326.64
2018-11-07T00:36:43.119Z,95322.97
2018-11-07T00:39:11.854Z,95323.86
2018-11-07T00:41:40.866Z,95318.77
2018-11-07T00:44:09.743Z,95324.16
2018-11-07T00:46:38.693Z,95318.20
2018-11-07T00:49:07.675Z,95326.98
2018-11-07T00:51:36.778Z,95324.80
2018-11-07T00:54:05.781Z,95328.08
2018-11-07T00:56:34.609Z,95323.31
2018-11-07T00:59:03.649Z,95323.20
2018-11-07T01:01:32.863Z,95324.41
2018-11-07T01:04:01.912Z,95324.38
2018-11-07T01:06:30.599Z,95334.55
2018-11-07T01:08:59.647Z,95323.58
2018-11-07T01:11:28.642Z,95321.70
2018-11-07T01:13:58.274Z,95319.00
2018-11-07T01:16:27.050Z,95311.20
2018-11-07T01:18:55.875Z,95311.31
2018-11-07T01:21:25.083Z,95301.23
2018-11-07T01:23:53.966Z,95304.73
2018-11-07T01:26:22.703Z,95295.85
2018-11-07T01:28:51.787Z,95294.47
2018-11-07T01:31:20.375Z,95295.24
2018-11-07T01:33:49.020Z,95296.86
2018-11-07T01:36:17.945Z,95300.25
2018-11-07T01:38:47.053Z,95301.23
2018-11-07T01:41:16.104Z,95305.94
2018-11-07T01:43:45.208Z,95299.84
2018-11-07T01:46:14.287Z,95295.34
2018-11-07T01:48:43.131Z,95296.27
2018-11-07T01:51:12.403Z,95293.67
2018-11-07T01:53:41.376Z,95294.65
2018-11-07T01:56:10.170Z,95294.84
2018-11-07T01:58:39.278Z,95296.14
2018-11-07T02:01:08.292Z,95300.04
2018-11-07T02:03:36.954Z,95298.66
2018-11-07T02:06:06.061Z,95304.42
2018-11-07T02:08:34.935Z,95302.04
2018-11-07T02:11:03.827Z,95296.63
2018-11-07T02:13:33.117Z,95297.05
2018-11-07T02:16:01.960Z,95293.75
2018-11-07T02:18:30.910Z,95295.56
2018-11-07T02:20:59.909Z,95294.55
2018-11-07T02:23:28.770Z,95297.45
2018-11-07T02:25:57.674Z,95294.92
2018-11-07T02:28:26.694Z,95288.66
2018-11-07T02:30:55.666Z,95296.22
2018-11-07T02:33:24.338Z,95292.84
2018-11-07T02:35:53.427Z,95295.94
2018-11-07T02:38:22.755Z,95295.85
2018-11-07T02:40:51.603Z,95292.14
2018-11-07T02:43:20.747Z,95292.03
2018-11-07T02:45:49.614Z,95297.42
2018-11-07T02:48:18.530Z,95292.63
2018-11-07T02:50:47.978Z,95293.52
2018-11-07T02:53:16.961Z,95297.32
2018-11-07T02:55:46.128Z,95296.61
2018-11-07T02:58:15.237Z,95300.27
2018-11-07T03:00:43.826Z,95300.48
2018-11-07T03:03:12.470Z,95301.35
2018-11-07T03:05:41.357Z,95298.86
2018-11-07T03:08:10.265Z,95294.58
2018-11-07T03:10:39.357Z,95299.66
2018-11-07T03:13:08.094Z,95298.34
2018-11-07T03:15:37.025Z,95302.69
2018-11-07T03:18:06.318Z,95306.30
2018-11-07T03:20:35.221Z,95304.39
2018-11-07T03:23:03.978Z,95302.91
2018-11-07T03:25:32.671Z,95303.85
2018-11-07T03:28:01.556Z,95296.19
2018-11-07T03:30:30.502Z,95303.55
2018-11-07T03:32:59.219Z,94997.30
2018-11-07T03:35:28.726Z,95308.78
2018-11-07T03:37:57.996Z,95304.82
2018-11-07T03:40:27.404Z,95301.05
2018-11-07T03:42:56.710Z,95315.36
2018-11-07T03:45:30.730Z,95304.69
2018-11-07T03:48:00.184Z,95309.66
2018-11-07T03:50:29.255Z,95309.17
2018-11-07T03:52:58.025Z,95311.91
2018-11-07T03:55:26.677Z,95309.72
2018-11-07T03:57:55.673Z,95314.16
2018-11-07T04:00:24.358Z,95313.58
2018-11-07T04:02:53.390Z,95316.84
2018-11-07T04:05:22.090Z,95318.87
2018-11-07T04:07:51.035Z,95320.97
2018-11-07T04:10:20.165Z,95321.52
2018-11-07T04:12:48.887Z,95317.76
2018-11-07T04:15:17.726Z,95319.33
2018-11-07T04:17:47.117Z,95324.72
2018-11-07T04:20:16.123Z,95319.76
2018-11-07T04:22:45.050Z,95319.84
2018-11-07T04:25:14.086Z,95324.22
2018-11-07T04:27:42.886Z,95323.73
2018-11-07T04:30:13.222Z,95319.33
2018-11-07T04:32:42.443Z,95320.39
2018-11-07T04:35:12.309Z,95322.66
2018-11-07T04:37:41.674Z,95323.46
2018-11-07T04:40:12.051Z,95329.67
2018-11-07T04:42:41.062Z,95324.89
2018-11-07T04:45:10.073Z,95332.05
2018-11-07T04:47:39.169Z,95337.13
2018-11-07T04:50:09.586Z,95345.79
2018-11-07T04:52:38.779Z,95335.44
2018-11-07T04:55:07.574Z,95341.00
2018-11-07T04:57:36.658Z,95341.72
2018-11-07T05:00:07.985Z,95344.63
2018-11-07T05:02:36.896Z,95350.91
2018-11-07T05:05:05.998Z,95343.64
2018-11-07T05:07:35.022Z,95350.52
2018-11-07T05:10:04.266Z,95352.92
2018-11-07T05:12:33.230Z,95359.80
2018-11-07T05:15:02.432Z,95358.84
2018-11-07T05:17:31.691Z,95365.41
2018-11-07T05:20:00.682Z,95359.06
2018-11-07T05:22:29.506Z,95359.97
2018-11-07T05:24:58.252Z,95361.48
2018-11-07T05:27:26.986Z,95363.16
2018-11-07T05:29:55.945Z,95366.95
2018-11-07T05:32:24.994Z,95368.63
2018-11-07T05:34:53.912Z,95373.72
2018-11-07T05:37:22.742Z,95369.03
2018-11-07T05:39:51.943Z,95377.51
2018-11-07T05:42:20.745Z,95375.07
2018-11-07T05:44:49.615Z,95376.40
2018-11-07T05:47:18.557Z,95378.77
2018-11-07T05:49:47.451Z,95382.72
2018-11-07T05:52:16.521Z,95377.16
2018-11-07T05:54:45.645Z,95371.55
2018-11-07T05:57:14.460Z,95376.02
2018-11-07T05:59:43.430Z,95381.64
2018-11-07T06:02:12.191Z,95383.48
2018-11-07T06:04:41.011Z,95386.35
2018-11-07T06:07:09.626Z,95387.37
2018-11-07T06:09:38.582Z,95393.76
2018-11-07T06:12:07.506Z,95390.96
2018-11-07T06:14:36.252Z,95386.86
2018-11-07T06:17:05.358Z,95390.27
2018-11-07T06:19:34.486Z,95388.98
2018-11-07T06:22:03.270Z,95393.95
2018-11-07T06:24:32.936Z,95392.55
2018-11-07T06:27:02.185Z,95388.52
2018-11-07T06:29:31.111Z,95393.29
2018-11-07T06:31:59.989Z,95396.48
2018-11-07T06:34:28.833Z,95398.20
2018-11-07T06:36:57.935Z,95395.63
2018-11-07T06:39:27.169Z,95391.16
2018-11-07T06:41:56.814Z,95394.58
2018-11-07T06:44:25.830Z,95393.44
2018-11-07T06:46:55.034Z,95399.17
2018-11-07T06:49:24.174Z,95388.57
2018-11-07T06:51:53.669Z,95389.00
2018-11-07T06:54:22.540Z,95394.12
2018-11-07T06:56:51.666Z,95393.66
2018-11-07T06:59:20.487Z,95390.50
2018-11-07T07:01:49.567Z,95389.06
2018-11-07T07:04:18.514Z,95389.66
2018-11-07T07:06:47.366Z,95388.40
2018-11-07T07:09:16.313Z,95390.47
2018-11-07T07:11:45.249Z,95390.22
2018-11-07T07:14:14.013Z,95388.15
2018-11-07T07:16:42.698Z,95389.45
2018-11-07T07:19:12.160Z,95388.56
2018-11-07T07:21:41.186Z,95382.03
2018-11-07T07:24:09.889Z,95386.35
2018-11-07T07:26:38.858Z,95388.91
2018-11-07T07:29:07.989Z,95382.37
2018-11-07T07:31:36.743Z,95379.49
2018-11-07T07:34:05.837Z,95380.29
2018-11-07T07:36:34.840Z,95380.25
2018-11-07T07:39:04.008Z,95382.40
2018-11-07T07:41:32.798Z,95381.66
2018-11-07T07:44:01.712Z,95383.67
2018-11-07T07:46:30.806Z,95385.41
2018-11-07T07:48:59.815Z,95377.91
2018-11-07T07:51:28.774Z,95378.80
2018-11-07T07:53:57.679Z,95379.00
2018-11-07T07:56:26.523Z,95380.70
2018-11-07T07:58:55.378Z,95379.68
2018-11-07T08:01:24.035Z,95384.90
2018-11-07T08:03:52.760Z,95381.64
2018-11-07T08:06:21.726Z,95382.54
2018-11-07T08:08:50.517Z,95379.09
2018-11-07T08:11:19.666Z,95386.19
2018-11-07T08:13:48.355Z,95381.53
2018-11-07T08:16:17.381Z,95385.74
2018-11-07T08:18:46.083Z,95382.18
2018-11-07T08:21:15.265Z,95381.23
2018-11-07T08:23:44.131Z,95381.45
2018-11-07T08:26:12.858Z,95383.16
2018-11-07T08:28:41.811Z,95376.95
2018-11-07T08:31:10.453Z,95377.12
2018-11-07T08:33:39.158Z,95381.02
2018-11-07T08:36:08.147Z,95373.14
2018-11-07T08:38:37.066Z,95374.93
2018-11-07T08:41:06.845Z,95364.75
2018-11-07T08:43:36.387Z,95366.92
2018-11-07T08:46:05.926Z,95364.89
2018-11-07T08:48:34.822Z,95367.84
2018-11-07T08:51:03.611Z,95364.52
2018-11-07T08:53:32.625Z,95360.31
2018-11-07T08:56:01.822Z,95359.63
2018-11-07T08:58:30.738Z,95367.09
2018-11-07T09:00:59.403Z,95356.54
2018-11-07T09:03:28.130Z,95357.48
2018-11-07T09:05:57.405Z,95354.08
2018-11-07T09:08:26.280Z,95348.83
2018-11-07T09:10:55.142Z,95349.20
2018-11-07T09:13:24.512Z,95346.05
2018-11-07T09:15:53.529Z,95344.73
2018-11-07T09:18:22.673Z,95335.61
2018-11-07T09:20:51.872Z,95329.84
2018-11-07T09:23:20.905Z,95328.48
2018-11-07T09:25:49.689Z,95326.73
2018-11-07T09:28:18.481Z,95325.81
2018-11-07T09:30:47.607Z,95322.42
2018-11-07T09:33:17.195Z,95315.38
2018-11-07T09:35:46.355Z,95310.59
2018-11-07T09:38:15.232Z,95304.30
2018-11-07T09:40:44.126Z,95304.63
2018-11-07T09:43:13.332Z,95299.86
2018-11-07T09:45:42.150Z,95296.72
2018-11-07T09:48:11.432Z,95291.10
2018-11-07T09:50:40.612Z,95283.77
2018-11-07T09:53:09.347Z,95287.87
2018-11-07T09:55:38.229Z,95289.27
2018-11-07T09:58:07.511Z,95285.77
2018-11-07T10:00:36.202Z,95285.94
2018-11-07T10:03:04.967Z,95288.21
2018-11-07T10:05:33.881Z,95274.92
2018-11-07T10:08:02.688Z,95222.83
2018-11-07T10:10:31.334Z,95274.09
2018-11-07T10:13:00.560Z,95275.23
2018-11-07T10:15:29.728Z,95274.34
2018-11-07T10:17:58.805Z,95273.23
2018-11-07T10:20:27.940Z,95272.98
2018-11-07T10:22:57.198Z,95268.39
2018-11-07T10:25:26.429Z,95263.88
2018-11-07T10:27:56.095Z,95255.80
2018-11-07T10:30:24.546Z,95255.23
2018-11-07T10:32:53.085Z,95245.75
2018-11-07T10:35:22.015Z,95015.52
2018-11-07T10:37:50.920Z,95245.37
2018-11-07T10:40:22.221Z,95239.13
2018-11-07T10:42:51.323Z,95237.72
2018-11-07T10:45:20.431Z,95237.14
2018-11-07T10:47:50.034Z,95225.44
2018-11-07T10:50:19.687Z,95230.84
2018-11-07T10:52:49.418Z,95220.91
2018-11-07T10:55:18.900Z,95216.69
2018-11-07T10:57:48.098Z,95218.18
2018-11-07T11:00:22.262Z,95216.00
2018-11-07T11:02:55.861Z,95208.42
2018-11-07T11:05:24.850Z,95216.85
2018-11-07T11:07:54.012Z,95212.11
2018-11-07T11:10:23.315Z,95211.77
2018-11-07T11:12:52.499Z,95207.50
2018-11-07T11:15:24.428Z,95209.23
2018-11-07T11:17:53.300Z,95193.20
2018-11-07T11:20:22.224Z,95202.18
2018-11-07T11:22:51.009Z,95195.98
2018-11-07T11:25:20.143Z,95190.57
2018-11-07T11:27:49.099Z,95189.00
2018-11-07T11:30:17.710Z,95188.83
2018-11-07T11:32:46.428Z,95189.90
2018-11-07T11:35:15.393Z,95182.33
2018-11-07T11:37:44.036Z,95183.58
2018-11-07T11:40:14.064Z,95180.17
2018-11-07T11:42:43.911Z,95177.36
2018-11-07T11:45:13.823Z,95182.42
2018-11-07T11:47:43.115Z,95156.83
2018-11-07T11:50:14.227Z,95158.61
2018-11-07T11:52:44.183Z,95163.05
2018-11-07T11:55:13.198Z,95168.61
2018-11-07T11:57:43.582Z,95159.44
2018-11-07T12:00:14.842Z,95156.62
2018-11-07T12:02:43.629Z,95154.27
2018-11-07T12:05:13.324Z,95148.51
2018-11-07T12:07:42.413Z,95155.19
2018-11-07T12:10:19.261Z,95150.12
2018-11-07T12:12:49.341Z,95152.75
2018-11-07T12:15:19.162Z,95152.95
2018-11-07T12:17:48.163Z,95146.24
2018-11-07T12:20:16.959Z,95148.91
2018-11-07T12:22:46.105Z,95145.19
2018-11-07T12:25:15.604Z,95140.56
2018-11-07T12:27:44.846Z,95143.11
2018-11-07T12:30:16.439Z,95141.78
2018-11-07T12:32:46.388Z,95136.38
2018-11-07T12:35:15.662Z,95131.59
2018-11-07T12:37:44.839Z,95129.39
2018-11-07T12:40:14.118Z,95131.84
2018-11-07T12:42:43.083Z,95130.69
2018-11-07T12:45:13.306Z,95120.63
2018-11-07T12:47:42.194Z,95127.56
2018-11-07T12:50:17.636Z,95132.66
2018-11-07T12:52:46.936Z,95121.20
2018-11-07T12:55:15.966Z,95124.95
2018-11-07T12:57:45.020Z,95121.99
2018-11-07T13:00:16.130Z,95124.94
2018-11-07T13:02:45.033Z,95120.39
2018-11-07T13:05:15.071Z,95118.62
2018-11-07T13:07:44.766Z,95113.08
2018-11-07T13:10:14.801Z,95112.88
2018-11-07T13:12:44.659Z,95116.98
2018-11-07T13:15:14.213Z,95115.45
2018-11-07T13:17:43.230Z,95117.48
2018-11-07T13:20:14.329Z,95112.32
2018-11-07T13:22:44.194Z,95111.14
2018-11-07T13:25:13.771Z,95109.82
2018-11-07T13:27:42.789Z,95111.52
2018-11-07T13:30:15.710Z,95114.05
2018-11-07T13:32:44.500Z,95117.10
2018-11-07T13:35:14.175Z,95112.67
2018-11-07T13:37:43.656Z,95119.55
2018-11-07T13:40:19.678Z,95110.58
2018-11-07T13:42:48.544Z,95109.08
2018-11-07T13:45:18.654Z,95109.88
2018-11-07T13:47:48.566Z,95110.69
2018-11-07T13:50:17.805Z,95107.59
2018-11-07T13:52:46.832Z,95106.32
2018-11-07T13:55:16.151Z,95110.94
2018-11-07T13:57:45.187Z,95107.89
2018-11-07T14:00:19.230Z,95104.12
2018-11-07T14:02:48.817Z,95108.91
2018-11-07T14:05:17.630Z,95112.70
2018-11-07T14:07:46.434Z,95113.98
2018-11-07T14:10:24.026Z,95111.87
2018-11-07T14:12:53.274Z,95113.02
2018-11-07T14:15:22.179Z,95114.58
2018-11-07T14:17:51.580Z,95119.89
2018-11-07T14:20:20.795Z,95120.30
2018-11-07T14:22:49.694Z,95123.77
2018-11-07T14:25:18.481Z,95124.64
2018-11-07T14:27:47.549Z,95123.39
2018-11-07T14:30:17.870Z,95123.50
2018-11-07T14:32:49.684Z,95119.58
2018-11-07T14:35:18.998Z,95124.81
2018-11-07T14:37:47.942Z,95129.21
2018-11-07T14:40:16.934Z,95124.56
2018-11-07T14:42:45.993Z,95120.39
2018-11-07T14:45:15.080Z,95129.19
2018-11-07T14:47:44.055Z,95122.22
2018-11-07T14:50:13.278Z,95121.69
2018-11-07T14:52:42.333Z,95123.46
2018-11-07T14:55:12.350Z,95130.03
2018-11-07T14:57:41.290Z,95124.89
2018-11-07T15:00:12.270Z,95136.17
2018-11-07T15:02:41.685Z,95128.18
2018-11-07T15:05:11.763Z,95128.61
2018-11-07T15:07:41.218Z,95136.18
2018-11-07T15:10:11.427Z,95133.05
2018-11-07T15:12:40.163Z,95139.17
2018-11-07T15:15:11.698Z,95136.06
2018-11-07T15:17:40.638Z,95140.03
2018-11-07T15:20:10.674Z,95133.67
2018-11-07T15:22:39.757Z,95135.26
2018-11-07T15:25:09.994Z,95138.37
2018-11-07T15:27:38.975Z,95140.42
2018-11-07T15:30:09.402Z,95142.22
2018-11-07T15:32:38.558Z,95137.64
2018-11-07T15:35:08.046Z,95137.03
2018-11-07T15:37:37.071Z,95139.02
2018-11-07T15:40:07.443Z,95142.05
2018-11-07T15:42:36.217Z,95136.16
2018-11-07T15:45:05.909Z,95140.57
2018-11-07T15:47:34.928Z,95147.75
2018-11-07T15:50:08.978Z,95151.08
2018-11-07T15:52:37.869Z,95150.37
2018-11-07T15:55:07.413Z,95156.84
2018-11-07T15:57:36.592Z,95155.30
2018-11-07T16:00:08.229Z,95094.58
2018-11-07T16:02:37.456Z,95161.94
2018-11-07T16:05:06.901Z,95166.75
2018-11-07T16:07:35.623Z,95167.11
2018-11-07T16:10:04.938Z,95167.84
2018-11-07T16:12:33.877Z,95169.15
2018-11-07T16:15:02.786Z,95172.64
2018-11-07T16:17:31.663Z,95178.96
2018-11-07T16:20:00.795Z,95174.34
2018-11-07T16:22:29.504Z,95181.80
2018-11-07T16:24:58.821Z,95175.02
2018-11-07T16:27:27.778Z,95174.38
2018-11-07T16:29:56.686Z,95176.91
2018-11-07T16:32:25.722Z,95176.19
2018-11-07T16:34:54.302Z,95177.06
2018-11-07T16:37:23.088Z,95183.55
2018-11-07T16:39:51.847Z,95185.73
2018-11-07T16:42:20.662Z,95185.86
2018-11-07T16:44:49.433Z,95189.73
2018-11-07T16:47:18.418Z,95182.36
2018-11-07T16:49:47.511Z,95192.40
2018-11-07T16:52:16.467Z,95189.44
2018-11-07T16:54:45.346Z,95194.00
2018-11-07T16:57:14.382Z,95190.95
2018-11-07T16:59:43.486Z,95192.19
2018-11-07T17:02:12.736Z,95196.63
2018-11-07T17:04:41.701Z,95190.31
2018-11-07T17:07:10.428Z,95192.70
2018-11-07T17:09:39.307Z,95190.95
2018-11-07T17:12:08.002Z,95188.26
2018-11-07T17:14:36.825Z,95193.13
2018-11-07T17:17:05.795Z,95190.71
2018-11-07T17:19:35.140Z,95194.70
2018-11-07T17:22:04.143Z,95191.11
2018-11-07T17:24:33.358Z,95195.31
2018-11-07T17:27:02.122Z,95193.52
2018-11-07T17:29:31.159Z,95194.77
2018-11-07T17:32:00.054Z,95196.84
2018-11-07T17:34:28.902Z,95196.41
2018-11-07T17:36:57.544Z,95198.72
2018-11-07T17:39:26.377Z,95193.69
2018-11-07T17:41:55.329Z,95198.49
2018-11-07T17:44:24.051Z,95204.84
2018-11-07T17:46:52.854Z,95197.09
2018-11-07T17:49:21.866Z,95204.23
2018-11-07T17:51:50.823Z,95204.18
2018-11-07T17:54:20.055Z,95205.52
2018-11-07T17:56:49.138Z,95204.82
2018-11-07T17:59:18.182Z,95205.58
2018-11-07T18:01:47.134Z,95201.76
2018-11-07T18:04:15.803Z,95201.85
2018-11-07T18:06:44.522Z,95202.78
2018-11-07T18:09:13.263Z,95202.97
2018-11-07T18:11:42.107Z,95208.13
2018-11-07T18:14:11.384Z,95213.05
2018-11-07T18:16:40.202Z,95207.12
2018-11-07T18:19:09.543Z,95206.51
2018-11-07T18:21:38.553Z,95213.91
2018-11-07T18:24:07.489Z,95208.77
2018-11-07T18:26:36.666Z,95212.94
2018-11-07T18:29:06.574Z,95223.90
2018-11-07T18:31:35.587Z,95212.14
2018-11-07T18:34:04.356Z,95211.38
2018-11-07T18:36:33.130Z,95218.06
2018-11-07T18:39:02.367Z,95216.61
2018-11-07T18:41:31.519Z,95219.19
2018-11-07T18:44:00.357Z,95225.12
2018-11-07T18:46:29.081Z,95221.08
2018-11-07T18:48:57.846Z,95226.41
2018-11-07T18:51:26.771Z,95228.92
2018-11-07T18:53:55.634Z,95237.27
2018-11-07T18:56:24.607Z,95234.16
2018-11-07T18:58:53.960Z,95236.30
2018-11-07T19:01:22.675Z,95233.36
2018-11-07T19:03:51.406Z,95237.99
2018-11-07T19:06:20.142Z,95240.98
2018-11-07T19:08:48.966Z,95244.39
2018-11-07T19:11:18.199Z,95248.78
2018-11-07T19:13:47.470Z,95249.84
2018-11-07T19:16:16.450Z,95251.02
2018-11-07T19:18:45.199Z,95259.47
2018-11-07T19:21:14.247Z,95258.84
2018-11-07T19:23:42.943Z,95263.17
2018-11-07T19:26:11.685Z,95261.59
2018-11-07T19:28:40.559Z,95261.30
2018-11-07T19:31:09.223Z,95269.84
2018-11-07T19:33:37.895Z,95268.16
2018-11-07T19:36:06.639Z,95276.77
2018-11-07T19:38:35.550Z,95276.73
2018-11-07T19:41:04.330Z,95277.23
2018-11-07T19:43:33.379Z,95270.34
2018-11-07T19:46:02.503Z,95269.27
2018-11-07T19:48:31.434Z,95279.11
2018-11-07T19:51:00.125Z,95274.26
2018-11-07T19:53:29.114Z,95273.32
2018-11-07T19:55:58.382Z,95234.25
2018-11-07T19:58:27.302Z,95270.05
2018-11-07T20:00:55.955Z,95270.47
2018-11-07T20:03:24.583Z,95267.73
2018-11-07T20:05:53.342Z,95268.98
2018-11-07T20:08:22.325Z,95271.59
2018-11-07T20:10:51.102Z,95267.63
2018-11-07T20:13:20.034Z,95267.63
2018-11-07T20:15:49.102Z,95268.82
2018-11-07T20:18:17.962Z,95272.03
2018-11-07T20:20:46.670Z,95269.60
2018-11-07T20:23:15.688Z,95267.13
2018-11-07T20:25:44.372Z,95268.87
2018-11-07T20:28:13.285Z,95270.34
2018-11-07T20:30:42.283Z,95273.45
2018-11-07T20:33:10.960Z,95266.03
2018-11-07T20:35:39.732Z,95270.73
2018-11-07T20:38:08.610Z,95274.83
2018-11-07T20:40:37.433Z,95281.83
2018-11-07T20:43:06.676Z,95280.27
2018-11-07T20:45:35.835Z,95280.39
2018-11-07T20:48:04.840Z,95282.18
2018-11-07T20:50:34.219Z,95281.27
2018-11-07T20:53:03.340Z,95279.89
2018-11-07T20:55:32.497Z,95282.87
2018-11-07T20:58:01.563Z,95283.48
2018-11-07T21:00:30.266Z,95278.70
2018-11-07T21:02:59.040Z,95279.78
2018-11-07T21:05:27.912Z,95284.09
2018-11-07T21:07:56.990Z,95278.40
2018-11-07T21:10:26.172Z,95279.70
2018-11-07T21:12:54.981Z,95281.98
2018-11-07T21:15:23.675Z,95277.71
2018-11-07T21:17:52.690Z,95279.69
2018-11-07T21:20:21.599Z,95280.91
2018-11-07T21:22:50.211Z,95284.69
2018-11-07T21:25:19.268Z,95283.09
2018-11-07T21:27:48.382Z,95280.28
2018-11-07T21:30:17.618Z,95211.75
2018-11-07T21:32:46.207Z,95287.27
2018-11-07T21:35:14.979Z,95287.09
2018-11-07T21:37:43.947Z,95276.61
2018-11-07T21:40:14.746Z,95280.36
2018-11-07T21:42:44.037Z,95281.00
2018-11-07T21:45:14.008Z,95285.57
2018-11-07T21:47:43.621Z,95282.41
2018-11-07T21:50:13.856Z,95280.00
2018-11-07T21:52:42.550Z,95289.88
2018-11-07T21:55:11.532Z,95278.20
2018-11-07T21:57:40.659Z,95285.56
2018-11-07T22:00:12.358Z,95283.27
2018-11-07T22:02:41.785Z,95277.11
2018-11-07T22:05:10.953Z,95279.39
2018-11-07T22:07:40.254Z,95283.08
2018-11-07T22:10:10.563Z,95278.48
2018-11-07T22:12:39.602Z,95273.13
2018-11-07T22:15:08.942Z,95282.20
2018-11-07T22:17:38.343Z,95280.08
2018-11-07T22:20:19.633Z,95279.69
2018-11-07T22:22:48.460Z,95282.08
2018-11-07T22:25:17.715Z,95274.02
2018-11-07T22:27:46.606Z,95274.81
2018-11-07T22:30:16.580Z,95276.00
2018-11-07T22:32:45.314Z,95270.13
2018-11-07T22:35:15.466Z,95273.41
2018-11-07T22:37:45.041Z,95273.62
2018-11-07T22:40:16.999Z,95270.31
2018-11-07T22:42:45.721Z,95264.73
2018-11-07T22:45:14.894Z,95266.12
2018-11-07T22:47:43.846Z,95264.44
2018-11-07T22:50:13.848Z,95264.12
2018-11-07T22:52:43.714Z,95258.44
2018-11-07T22:55:12.669Z,95262.25
2018-11-07T22:57:41.502Z,95257.53
2018-11-07T23:00:20.640Z,95257.45
2018-11-07T23:02:50.761Z,95249.64
2018-11-07T23:05:19.447Z,95256.00
2018-11-07T23:07:49.031Z,95252.53
2018-11-07T23:10:18.183Z,95258.52
2018-11-07T23:12:47.603Z,95260.32
2018-11-07T23:15:21.620Z,95257.65
2018-11-07T23:17:50.874Z,95254.32
2018-11-07T23:20:20.032Z,95250.67
2018-11-07T23:22:49.141Z,95248.89
2018-11-07T23:25:18.425Z,95251.29
2018-11-07T23:27:47.829Z,95248.17
2018-11-07T23:30:16.698Z,95245.19
2018-11-07T23:32:45.575Z,95247.69
2018-11-07T23:35:14.748Z,95246.20
2018-11-07T23:37:43.985Z,95243.98
2018-11-07T23:40:13.302Z,95247.11
2018-11-07T23:42:42.540Z,95247.72
2018-11-07T23:45:11.810Z,95247.14
2018-11-07T23:47:41.149Z,95239.94
2018-11-07T23:50:10.479Z,95243.27
2018-11-07T23:52:44.506Z,95237.77
2018-11-07T23:55:13.694Z,95246.23
2018-11-07T23:57:42.935Z,95239.63
